createdAt,value
2019-01-24T00:01:46.688Z,72.03
2019-01-24T00:04:16.928Z,67.13
2019-01-24T00:06:46.653Z,71.43
2019-01-24T00:09:16.409Z,72.40
2019-01-24T00:11:46.325Z,67.67
2019-01-24T00:14:16.257Z,72.97
2019-01-24T00:16:46.674Z,71.97
2019-01-24T00:19:16.391Z,68.00
2019-01-24T00:21:46.318Z,66.07
2019-01-24T00:24:16.225Z,68.10
2019-01-24T00:26:45.905Z,65.40
2019-01-24T00:29:16.011Z,71.10
2019-01-24T00:31:46.068Z,73.67
2019-01-24T00:34:23.058Z,76.87
2019-01-24T00:36:48.879Z,70.12
2019-01-24T00:39:18.545Z,65.30
2019-01-24T00:41:48.374Z,76.57
2019-01-24T00:44:18.285Z,80.87
2019-01-24T00:46:47.978Z,74.93
2019-01-24T00:49:18.817Z,67.65
2019-01-24T00:51:48.489Z,71.70
2019-01-24T00:54:18.256Z,71.83
2019-01-24T00:56:48.446Z,67.60
2019-01-24T00:59:18.371Z,73.70
2019-01-24T01:01:48.361Z,72.90
2019-01-24T01:04:18.659Z,72.80
2019-01-24T01:06:48.867Z,68.50
2019-01-24T01:09:18.613Z,66.40
2019-01-24T01:11:49.089Z,66.80
2019-01-24T01:14:19.229Z,71.87
2019-01-24T01:16:49.637Z,67.87
2019-01-24T01:19:19.516Z,71.65
2019-01-24T01:21:51.777Z,74.53
2019-01-24T01:24:22.376Z,71.53
2019-01-24T01:26:52.407Z,80.70
2019-01-24T01:29:22.080Z,75.67
2019-01-24T01:31:51.745Z,71.30
2019-01-24T01:34:21.729Z,75.43
2019-01-24T01:36:51.769Z,80.27
2019-01-24T01:39:22.130Z,76.93
2019-01-24T01:41:53.893Z,75.97
2019-01-24T01:44:24.196Z,70.53
2019-01-24T01:46:54.106Z,76.80
2019-01-24T01:49:24.023Z,72.33
2019-01-24T01:51:53.925Z,77.20
2019-01-24T01:54:24.741Z,72.50
2019-01-24T01:56:54.672Z,77.07
2019-01-24T01:59:24.598Z,75.93
2019-01-24T02:01:54.543Z,81.63
2019-01-24T02:04:24.518Z,69.80
2019-01-24T02:06:54.942Z,75.90
2019-01-24T02:09:24.855Z,62.60
2019-01-24T02:11:54.773Z,71.33
2019-01-24T02:14:24.686Z,74.73
2019-01-24T02:16:54.657Z,71.43
2019-01-24T02:19:26.513Z,70.10
2019-01-24T02:21:56.254Z,80.23
2019-01-24T02:24:26.447Z,69.60
2019-01-24T02:26:56.249Z,77.60
2019-01-24T02:29:26.000Z,73.57
2019-01-24T02:31:55.755Z,75.53
2019-01-24T02:34:25.430Z,74.63
2019-01-24T02:36:55.597Z,77.37
2019-01-24T02:39:25.362Z,79.03
2019-01-24T02:41:55.017Z,78.97
2019-01-24T02:44:25.989Z,83.60
2019-01-24T02:46:56.339Z,75.43
2019-01-24T02:49:27.892Z,70.47
2019-01-24T02:51:58.009Z,79.27
2019-01-24T02:54:28.048Z,77.80
2019-01-24T02:56:57.726Z,77.73
2019-01-24T02:59:27.442Z,86.00
2019-01-24T03:01:57.606Z,84.77
2019-01-24T03:04:27.845Z,85.30
2019-01-24T03:06:57.887Z,83.37
2019-01-24T03:09:28.008Z,80.80
2019-01-24T03:11:57.923Z,80.30
2019-01-24T03:14:28.341Z,74.93
2019-01-24T03:17:02.538Z,72.47
2019-01-24T03:19:33.195Z,76.60
2019-01-24T03:22:03.151Z,76.97
2019-01-24T03:24:32.836Z,77.03
2019-01-24T03:27:03.150Z,83.73
2019-01-24T03:29:33.444Z,90.33
2019-01-24T03:32:03.504Z,84.50
2019-01-24T03:34:33.579Z,91.13
2019-01-24T03:37:03.331Z,78.53
2019-01-24T03:39:33.114Z,81.80
2019-01-24T03:42:03.029Z,82.53
2019-01-24T03:44:33.207Z,82.03
2019-01-24T03:47:03.407Z,83.17
2019-01-24T03:49:33.395Z,85.57
2019-01-24T03:52:03.069Z,90.37
2019-01-24T03:54:32.801Z,80.67
2019-01-24T03:57:02.917Z,84.73
2019-01-24T03:59:32.606Z,85.92
2019-01-24T04:02:03.278Z,81.67
2019-01-24T04:04:33.330Z,86.00
2019-01-24T04:07:03.095Z,80.67
2019-01-24T04:09:32.770Z,87.50
2019-01-24T04:12:02.911Z,89.23
2019-01-24T04:14:32.893Z,83.40
2019-01-24T04:17:02.577Z,85.83
2019-01-24T04:19:32.431Z,82.33
2019-01-24T04:22:02.276Z,83.83
2019-01-24T04:24:32.225Z,80.73
2019-01-24T04:27:01.909Z,86.53
2019-01-24T04:29:32.617Z,82.83
2019-01-24T04:32:03.294Z,88.10
2019-01-24T04:34:34.472Z,87.00
2019-01-24T04:37:04.739Z,87.37
2019-01-24T04:39:34.725Z,82.07
2019-01-24T04:42:05.351Z,84.90
2019-01-24T04:44:35.477Z,81.37
2019-01-24T04:47:05.789Z,81.95
2019-01-24T04:49:35.841Z,86.03
2019-01-24T04:52:05.853Z,85.20
2019-01-24T04:54:35.747Z,89.40
2019-01-24T04:57:06.536Z,81.53
2019-01-24T04:59:36.216Z,80.70
2019-01-24T05:02:06.536Z,86.03
2019-01-24T05:04:36.234Z,83.47
2019-01-24T05:07:06.321Z,80.40
2019-01-24T05:09:36.705Z,93.03
2019-01-24T05:12:06.702Z,90.77
2019-01-24T05:14:37.147Z,81.07
2019-01-24T05:17:08.905Z,83.00
2019-01-24T05:19:38.873Z,87.27
2019-01-24T05:22:09.096Z,79.23
2019-01-24T05:24:39.303Z,86.60
2019-01-24T05:27:10.092Z,78.47
2019-01-24T05:29:40.006Z,83.07
2019-01-24T05:32:10.593Z,89.37
2019-01-24T05:34:41.004Z,84.53
2019-01-24T05:37:11.633Z,89.03
2019-01-24T05:39:41.638Z,85.90
2019-01-24T05:42:12.011Z,92.82
2019-01-24T05:44:42.105Z,83.53
2019-01-24T05:47:12.116Z,92.83
2019-01-24T05:49:43.685Z,86.00
2019-01-24T05:52:19.441Z,92.10
2019-01-24T05:54:45.345Z,86.70
2019-01-24T05:57:15.018Z,89.23
2019-01-24T05:59:44.927Z,83.33
2019-01-24T06:02:14.821Z,92.80
2019-01-24T06:04:44.486Z,85.73
2019-01-24T06:07:14.929Z,82.75
2019-01-24T06:09:45.130Z,88.30
2019-01-24T06:12:15.062Z,82.30
2019-01-24T06:14:44.848Z,88.50
2019-01-24T06:17:15.837Z,91.73
2019-01-24T06:19:45.716Z,95.03
2019-01-24T06:22:16.433Z,91.17
2019-01-24T06:24:47.382Z,79.27
2019-01-24T06:27:19.146Z,86.55
2019-01-24T06:29:49.369Z,91.47
2019-01-24T06:32:19.274Z,88.00
2019-01-24T06:34:49.112Z,85.37
2019-01-24T06:37:18.777Z,82.53
2019-01-24T06:39:48.710Z,88.77
2019-01-24T06:42:19.189Z,84.63
2019-01-24T06:44:49.361Z,81.73
2019-01-24T06:47:19.639Z,84.95
2019-01-24T06:49:49.348Z,89.20
2019-01-24T06:52:19.194Z,89.13
2019-01-24T06:54:48.868Z,88.33
2019-01-24T06:57:19.220Z,90.75
2019-01-24T06:59:49.897Z,95.47
2019-01-24T07:02:19.580Z,77.53
2019-01-24T07:04:51.920Z,88.87
2019-01-24T07:07:22.473Z,92.90
2019-01-24T07:09:57.303Z,90.47
2019-01-24T07:12:26.986Z,93.00
2019-01-24T07:14:57.370Z,87.47
2019-01-24T07:17:27.857Z,83.13
2019-01-24T07:19:57.913Z,90.27
2019-01-24T07:22:40.471Z,92.23
2019-01-24T07:25:14.440Z,95.17
2019-01-24T07:33:34.037Z,98.63
2019-01-24T07:36:06.227Z,99.03
2019-01-24T07:38:36.786Z,106.90
2019-01-24T07:41:06.897Z,103.87
2019-01-24T07:43:36.735Z,98.90
2019-01-24T07:46:06.793Z,90.90
2019-01-24T07:48:37.880Z,94.63
2019-01-24T07:51:08.456Z,95.27
2019-01-24T07:53:38.217Z,96.80
2019-01-24T07:56:08.627Z,87.73
2019-01-24T07:58:38.365Z,91.30
2019-01-24T08:01:09.225Z,96.53
2019-01-24T08:03:39.107Z,101.47
2019-01-24T08:06:13.943Z,91.17
2019-01-24T08:08:43.630Z,90.03
2019-01-24T08:11:14.979Z,93.70
2019-01-24T08:13:44.665Z,96.97
2019-01-24T08:16:15.592Z,95.37
2019-01-24T08:18:46.580Z,98.63
2019-01-24T08:21:16.252Z,98.50
2019-01-24T08:23:46.373Z,94.07
2019-01-24T08:26:16.062Z,99.17
2019-01-24T08:28:46.023Z,96.37
2019-01-24T08:31:16.922Z,92.77
2019-01-24T08:33:47.061Z,97.90
2019-01-24T08:36:16.820Z,108.03
2019-01-24T08:38:47.794Z,107.17
2019-01-24T08:41:24.441Z,87.90
2019-01-24T08:43:55.419Z,92.07
2019-01-24T08:49:20.508Z,93.23
2019-01-24T08:51:52.147Z,95.57
2019-01-24T08:54:21.829Z,95.07
2019-01-24T08:56:51.523Z,88.67
2019-01-24T08:59:21.523Z,102.55
2019-01-24T09:01:51.447Z,100.43
2019-01-24T09:04:23.555Z,97.53
2019-01-24T09:06:55.021Z,97.27
2019-01-24T09:09:25.396Z,102.03
2019-01-24T09:11:56.270Z,98.17
2019-01-24T09:14:26.770Z,102.53
2019-01-24T09:16:56.454Z,97.10
2019-01-24T09:19:26.470Z,102.17
2019-01-24T09:21:56.245Z,100.00
2019-01-24T09:24:26.796Z,102.23
2019-01-24T09:26:56.772Z,87.07
2019-01-24T09:29:28.406Z,100.13
2019-01-24T09:31:58.768Z,100.30
2019-01-24T09:34:28.462Z,90.60
2019-01-24T09:36:59.210Z,94.23
2019-01-24T09:39:28.979Z,101.93
2019-01-24T09:41:59.657Z,96.73
2019-01-24T09:44:30.339Z,98.93
2019-01-24T09:47:00.040Z,99.87
2019-01-24T09:49:29.715Z,102.73
2019-01-24T09:52:00.697Z,90.03
2019-01-24T09:54:30.648Z,101.53
2019-01-24T09:57:00.939Z,103.13
2019-01-24T09:59:30.805Z,92.73
2019-01-24T10:02:01.186Z,100.93
2019-01-24T10:04:30.872Z,99.67
2019-01-24T10:07:02.459Z,103.60
2019-01-24T10:09:32.918Z,96.67
2019-01-24T10:12:04.228Z,104.93
2019-01-24T10:14:35.371Z,104.23
2019-01-24T10:17:05.622Z,102.23
2019-01-24T10:19:37.227Z,107.70
2019-01-24T10:22:08.833Z,91.10
2019-01-24T10:24:39.338Z,100.87
2019-01-24T10:27:11.881Z,97.33
2019-01-24T10:29:43.431Z,103.97
2019-01-24T10:32:13.393Z,100.47
2019-01-24T10:34:43.146Z,94.00
2019-01-24T10:37:13.881Z,102.50
2019-01-24T10:39:45.180Z,111.67
2019-01-24T10:42:17.762Z,100.70
2019-01-24T10:44:47.592Z,102.67
2019-01-24T10:47:17.583Z,100.43
2019-01-24T10:49:49.850Z,101.70
2019-01-24T10:52:19.786Z,99.97
2019-01-24T10:54:49.470Z,102.20
2019-01-24T10:57:21.173Z,105.67
2019-01-24T10:59:51.702Z,112.63
2019-01-24T11:02:21.370Z,102.75
2019-01-24T11:04:51.345Z,96.87
2019-01-24T11:07:21.382Z,98.33
2019-01-24T11:09:52.205Z,94.07
2019-01-24T11:12:22.045Z,98.10
2019-01-24T11:14:52.717Z,95.33
2019-01-24T11:17:22.938Z,96.85
2019-01-24T11:19:55.635Z,101.80
2019-01-24T11:22:25.439Z,109.33
2019-01-24T11:24:55.601Z,95.40
2019-01-24T11:27:25.671Z,117.03
2019-01-24T11:29:56.397Z,108.40
2019-01-24T11:32:26.892Z,133.13
2019-01-24T11:34:57.269Z,109.87
2019-01-24T11:37:26.946Z,112.20
2019-01-24T11:39:57.102Z,88.63
2019-01-24T11:42:26.775Z,96.97
2019-01-24T11:44:56.773Z,92.83
2019-01-24T11:47:26.454Z,157.07
2019-01-24T11:49:56.704Z,105.97
2019-01-24T11:52:26.784Z,97.73
2019-01-24T11:54:56.933Z,101.47
2019-01-24T11:57:26.857Z,107.90
2019-01-24T11:59:56.702Z,96.37
2019-01-24T12:02:26.604Z,106.43
2019-01-24T12:04:56.518Z,101.73
2019-01-24T12:07:27.498Z,100.93
2019-01-24T12:09:58.245Z,92.03
2019-01-24T12:12:27.939Z,98.92
2019-01-24T12:14:57.617Z,93.17
2019-01-24T12:17:28.306Z,97.97
2019-01-24T12:19:58.587Z,107.30
2019-01-24T12:22:29.421Z,101.60
2019-01-24T12:24:59.218Z,110.43
2019-01-24T12:27:28.905Z,97.33
2019-01-24T12:29:59.200Z,103.87
2019-01-24T12:32:29.257Z,93.73
2019-01-24T12:34:59.179Z,101.77
2019-01-24T12:37:29.533Z,98.37
2019-01-24T12:39:59.442Z,93.47
2019-01-24T12:42:30.365Z,102.60
2019-01-24T12:45:00.370Z,101.93
2019-01-24T12:47:30.051Z,98.63
2019-01-24T12:49:59.807Z,111.00
2019-01-24T12:52:29.802Z,98.77
2019-01-24T12:54:59.494Z,104.13
2019-01-24T12:57:29.158Z,97.30
2019-01-24T12:59:59.833Z,112.50
2019-01-24T13:02:30.993Z,94.40
2019-01-24T13:05:01.052Z,105.60
2019-01-24T13:07:30.731Z,104.30
2019-01-24T13:10:00.725Z,96.07
2019-01-24T13:12:31.766Z,101.90
2019-01-24T13:15:02.085Z,93.67
2019-01-24T13:17:31.778Z,94.37
2019-01-24T13:20:02.840Z,100.60
2019-01-24T13:22:32.521Z,90.33
2019-01-24T13:25:02.447Z,94.87
2019-01-24T13:27:32.321Z,98.17
2019-01-24T13:30:03.260Z,94.77
2019-01-24T13:32:34.170Z,93.63
2019-01-24T13:35:04.510Z,103.13
2019-01-24T13:37:34.411Z,103.40
2019-01-24T13:40:04.871Z,96.83
2019-01-24T13:42:36.969Z,92.03
2019-01-24T13:45:10.558Z,103.50
2019-01-24T13:47:40.489Z,98.57
2019-01-24T13:50:14.216Z,93.13
2019-01-24T13:52:44.603Z,95.07
2019-01-24T13:55:14.935Z,89.73
2019-01-24T13:57:44.763Z,97.30
2019-01-24T14:00:22.966Z,99.37
2019-01-24T14:03:08.371Z,97.40
2019-01-24T14:05:38.460Z,99.13
2019-01-24T14:08:08.443Z,103.10
2019-01-24T14:10:39.817Z,98.77
2019-01-24T14:13:09.801Z,92.23
2019-01-24T14:15:39.638Z,91.27
2019-01-24T14:18:09.734Z,91.33
2019-01-24T14:20:40.966Z,100.27
2019-01-24T14:23:10.730Z,109.63
2019-01-24T14:25:41.935Z,97.40
2019-01-24T14:28:11.973Z,92.50
2019-01-24T14:30:41.670Z,107.20
2019-01-24T14:33:13.659Z,103.73
2019-01-24T14:35:43.738Z,102.07
2019-01-24T14:38:13.618Z,108.30
2019-01-24T14:40:43.412Z,100.67
2019-01-24T14:43:13.373Z,97.60
2019-01-24T14:45:43.986Z,92.97
2019-01-24T14:48:13.738Z,99.77
2019-01-24T14:50:43.515Z,100.07
2019-01-24T14:53:13.347Z,98.80
2019-01-24T14:55:43.184Z,99.57
2019-01-24T14:58:16.598Z,89.28
2019-01-24T15:00:50.637Z,99.53
2019-01-24T15:03:30.130Z,109.92
2019-01-24T15:06:00.986Z,104.70
2019-01-24T15:08:30.978Z,98.90
2019-01-24T15:11:00.882Z,101.97
2019-01-24T15:13:30.795Z,93.93
2019-01-24T15:16:00.813Z,97.08
2019-01-24T15:18:32.354Z,106.47
2019-01-24T15:21:02.454Z,112.17
2019-01-24T15:23:32.261Z,96.60
2019-01-24T15:26:05.975Z,100.40
2019-01-24T15:28:37.427Z,96.00
2019-01-24T15:31:08.853Z,101.63
2019-01-24T15:33:40.937Z,96.93
2019-01-24T15:36:11.012Z,96.53
2019-01-24T15:38:41.296Z,98.70
2019-01-24T15:41:12.814Z,95.93
2019-01-24T15:43:42.591Z,109.37
2019-01-24T15:46:12.481Z,101.02
2019-01-24T15:48:43.192Z,97.30
2019-01-24T15:51:13.246Z,100.70
2019-01-24T15:53:42.933Z,101.63
2019-01-24T15:56:12.766Z,109.37
2019-01-24T16:01:24.891Z,100.13
2019-01-24T16:06:50.491Z,100.30
2019-01-24T16:09:22.165Z,101.70
2019-01-24T16:11:52.303Z,102.33
2019-01-24T16:14:21.972Z,106.72
2019-01-24T16:16:51.657Z,102.87
2019-01-24T16:19:22.034Z,100.22
2019-01-24T16:21:52.796Z,96.47
2019-01-24T16:24:22.552Z,108.52
2019-01-24T16:26:52.306Z,109.83
2019-01-24T16:29:22.000Z,105.23
2019-01-24T16:31:51.690Z,108.77
2019-01-24T16:34:21.686Z,103.95
2019-01-24T16:36:52.035Z,98.13
2019-01-24T16:39:22.859Z,120.10
2019-01-24T16:41:53.151Z,105.50
2019-01-24T16:44:24.006Z,102.27
2019-01-24T16:46:54.275Z,101.13
2019-01-24T16:49:23.968Z,103.70
2019-01-24T16:54:47.518Z,108.77
2019-01-24T16:57:17.187Z,101.40
2019-01-24T16:59:46.959Z,102.13
2019-01-24T17:02:16.874Z,103.83
2019-01-24T17:04:46.655Z,108.60
2019-01-24T17:07:16.330Z,97.77
2019-01-24T17:12:32.773Z,97.97
2019-01-24T17:15:02.524Z,109.80
2019-01-24T17:17:33.390Z,102.93
2019-01-24T17:20:03.183Z,105.57
2019-01-24T17:22:33.024Z,105.27
2019-01-24T17:25:02.716Z,104.80
2019-01-24T17:27:32.435Z,101.93
2019-01-24T17:30:02.118Z,98.57
2019-01-24T17:32:32.057Z,98.13
2019-01-24T17:35:03.211Z,95.77
2019-01-24T17:37:32.920Z,97.87
2019-01-24T17:40:04.123Z,96.47
2019-01-24T17:42:34.766Z,102.10
2019-01-24T17:47:59.068Z,99.60
2019-01-24T17:50:28.890Z,93.33
2019-01-24T17:52:58.963Z,104.73
2019-01-24T17:55:35.296Z,96.73
2019-01-24T17:58:07.878Z,102.77
2019-01-24T18:00:41.379Z,107.77
2019-01-24T18:03:11.807Z,102.13
2019-01-24T18:05:42.045Z,101.20
2019-01-24T18:08:12.382Z,104.40
2019-01-24T18:10:42.795Z,98.37
2019-01-24T18:13:12.477Z,92.83
2019-01-24T18:15:43.046Z,99.90
2019-01-24T18:18:14.477Z,102.37
2019-01-24T18:20:44.895Z,102.32
2019-01-24T18:23:15.187Z,106.00
2019-01-24T18:25:45.546Z,97.83
2019-01-24T18:28:15.408Z,97.00
2019-01-24T18:30:45.380Z,98.77
2019-01-24T18:33:15.249Z,107.53
2019-01-24T18:35:45.013Z,106.97
2019-01-24T18:38:16.919Z,100.37
2019-01-24T18:40:47.987Z,95.87
2019-01-24T18:43:22.006Z,106.13
2019-01-24T18:45:52.877Z,98.07
2019-01-24T18:48:22.648Z,108.90
2019-01-24T18:50:52.412Z,105.27
2019-01-24T18:53:22.167Z,102.03
2019-01-24T18:55:54.177Z,97.97
2019-01-24T18:58:23.860Z,105.80
2019-01-24T19:00:53.595Z,108.70
2019-01-24T19:03:24.488Z,96.83
2019-01-24T19:05:54.511Z,93.93
2019-01-24T19:08:24.209Z,108.93
2019-01-24T19:10:54.750Z,109.83
2019-01-24T19:13:24.516Z,101.22
2019-01-24T19:18:49.814Z,99.60
2019-01-24T19:21:19.522Z,96.80
2019-01-24T19:23:49.825Z,103.53
2019-01-24T19:29:16.701Z,106.10
2019-01-24T19:31:46.475Z,108.23
2019-01-24T19:37:11.528Z,113.53
2019-01-24T19:39:41.509Z,114.80
2019-01-24T19:42:11.803Z,99.27
2019-01-24T19:44:41.719Z,107.40
2019-01-24T19:50:07.951Z,107.60
2019-01-24T19:52:40.435Z,102.30
2019-01-24T19:55:11.327Z,102.10
2019-01-24T19:57:45.844Z,100.93
2019-01-24T20:00:18.451Z,102.50
2019-01-24T20:02:48.594Z,103.87
2019-01-24T20:05:20.342Z,107.73
2019-01-24T20:07:50.388Z,104.40
2019-01-24T20:10:22.785Z,109.65
2019-01-24T20:12:53.869Z,100.30
2019-01-24T20:15:26.334Z,97.83
2019-01-24T20:17:56.345Z,97.27
2019-01-24T20:20:26.162Z,98.07
2019-01-24T20:22:56.551Z,101.27
2019-01-24T20:25:28.463Z,99.83
2019-01-24T20:27:59.904Z,104.30
2019-01-24T20:30:32.354Z,104.27
2019-01-24T20:33:04.021Z,105.33
2019-01-24T20:35:52.396Z,99.60
2019-01-24T20:38:22.204Z,106.00
2019-01-24T20:40:51.937Z,94.57
2019-01-24T20:43:23.367Z,108.90
2019-01-24T20:45:53.470Z,99.65
2019-01-24T20:48:23.722Z,95.60
2019-01-24T20:50:55.041Z,96.13
2019-01-24T20:53:25.140Z,101.30
2019-01-24T20:55:55.127Z,98.60
2019-01-24T20:58:25.039Z,105.87
2019-01-24T21:00:55.304Z,99.40
2019-01-24T21:03:26.217Z,105.07
2019-01-24T21:06:09.274Z,99.45
2019-01-24T21:08:41.168Z,100.10
2019-01-24T21:11:11.572Z,104.23
2019-01-24T21:13:45.078Z,96.60
2019-01-24T21:16:15.503Z,102.55
2019-01-24T21:18:45.486Z,94.87
2019-01-24T21:21:15.299Z,92.88
2019-01-24T21:23:45.315Z,104.63
2019-01-24T21:26:15.149Z,108.03
2019-01-24T21:28:45.421Z,119.53
2019-01-24T21:31:15.147Z,106.75
2019-01-24T21:33:45.123Z,101.27
2019-01-24T21:36:14.867Z,101.92
2019-01-24T21:38:44.600Z,101.90
2019-01-24T21:41:14.346Z,110.07
2019-01-24T21:43:44.154Z,122.30
2019-01-24T21:46:14.679Z,109.03
2019-01-24T21:48:44.408Z,107.97
2019-01-24T21:51:14.173Z,96.87
2019-01-24T21:53:44.055Z,107.17
2019-01-24T21:56:14.366Z,103.13
2019-01-24T21:58:44.521Z,106.20
2019-01-24T22:01:14.343Z,101.10
2019-01-24T22:03:45.832Z,100.77
2019-01-24T22:06:15.813Z,109.30
2019-01-24T22:08:45.542Z,109.83
2019-01-24T22:11:16.022Z,108.80
2019-01-24T22:13:45.755Z,104.97
2019-01-24T22:16:16.132Z,92.70
2019-01-24T22:18:45.870Z,96.90
2019-01-24T22:21:15.676Z,91.80
2019-01-24T22:23:47.467Z,103.13
2019-01-24T22:26:18.205Z,97.83
2019-01-24T22:28:48.891Z,97.10
2019-01-24T22:31:18.831Z,101.82
2019-01-24T22:33:49.256Z,101.80
2019-01-24T22:36:19.555Z,99.80
2019-01-24T22:38:50.201Z,99.67
2019-01-24T22:41:19.934Z,94.30
2019-01-24T22:43:50.863Z,95.93
2019-01-24T22:46:20.651Z,87.93
2019-01-24T22:48:51.426Z,100.33
2019-01-24T22:51:21.547Z,90.10
2019-01-24T22:53:51.571Z,100.30
2019-01-24T22:56:22.278Z,91.53
2019-01-24T22:58:52.237Z,89.53
2019-01-24T23:01:41.557Z,98.63
2019-01-24T23:04:14.087Z,86.40
2019-01-24T23:06:44.265Z,95.27
2019-01-24T23:09:16.452Z,102.82
2019-01-24T23:11:46.353Z,94.60
2019-01-24T23:14:16.096Z,101.18
2019-01-24T23:16:45.813Z,99.53
2019-01-24T23:19:15.775Z,99.77
2019-01-24T23:21:45.559Z,96.07
2019-01-24T23:24:15.292Z,95.33
2019-01-24T23:26:45.033Z,96.53
2019-01-24T23:29:15.222Z,93.30
2019-01-24T23:31:44.958Z,98.57
2019-01-24T23:34:15.875Z,96.13
2019-01-24T23:36:45.608Z,97.10
2019-01-24T23:39:16.834Z,94.67
2019-01-24T23:41:46.575Z,96.37
2019-01-24T23:44:16.301Z,92.72
2019-01-24T23:46:46.031Z,107.47
2019-01-24T23:49:15.847Z,87.67
2019-01-24T23:51:45.954Z,100.73
2019-01-24T23:54:15.712Z,102.90
2019-01-24T23:56:45.430Z,96.30
2019-01-24T23:59:15.163Z,88.37
